site sitenws-alerts: Checking more than four warning/county codes can delay the loading of your pages. You should use a cron job to get the data.

Nearby METAR Weather Reports

 

KETB - West Bend Municipal Airport, West Bend, WI
Updated: 08/24/2019 4:55pm
Clear
Clear
 Wind from ESE
Wind: ESE 8 mph , 13 km/h
Temperature: 70°F , 21°C
Dew Point: 50°F , 10°C
Humidity: 50%
Barometer: 30.26 inHg , 1024.7 hPa
Clouds: Clear
Visibility: 10 miles , 16 km
2019/08/24 21:55 KETB 242155Z AUTO 11007KT 10SM CLR 21/10 A3026 RMK AO2
KOSH - Wittman Regional Airport, Oshkosh, WI
Updated: 08/24/2019 4:53pm
Few Clouds
Few Clouds
 Wind from ESE
Wind: ESE 13 mph , 20 km/h
Temperature: 73°F , 23°C
Dew Point: 54°F , 12°C
Humidity: 50%
Barometer: 30.23 inHg , 1023.7 hPa
Clouds: Few Clouds
Visibility: 10 miles , 16 km
Cloud details: Few Clouds 4500 ft
2019/08/24 21:53 KOSH 242153Z 11011KT 10SM FEW045 23/12 A3023 RMK AO2 SLP229 T02280117
 
KSBM - Sheboygan County Memorial, Sheboygan, WI
Updated: 08/24/2019 4:53pm
Clear
Clear
 Wind from SSE
Wind: SSE 7 mph , 11 km/h
Temperature: 70°F , 21°C
Dew Point: 52°F , 11°C
Humidity: 53%
Barometer: 30.26 inHg , 1024.7 hPa
Clouds: Clear
Visibility: 10 miles , 16 km
2019/08/24 21:53 KSBM 242153Z AUTO 15006KT 10SM CLR 21/11 A3026 RMK AO2 SLP248 T02110106
KFLD - FDL County Airport, Fond du Lac, WI
Updated: 08/24/2019 4:53pm
Few Clouds
Few Clouds
 Wind from ESE
Wind: ESE 10 mph , 17 km/h
Temperature: 75°F , 24°C
Dew Point: 54°F , 12°C
Humidity: 47%
Barometer: 30.24 inHg , 1024 hPa
Clouds: Few Clouds
Visibility: 10 miles , 16 km
Cloud details: Few Clouds 4700 ft
2019/08/24 21:53 KFLD 242153Z AUTO 11009KT 10SM FEW047 24/12 A3024 RMK AO2 SLP240 T02390117
 
KMKE - General Mitchell Field, Milwaukee, WI
Updated: 08/24/2019 4:52pm
Partly cloudy
Partly cloudy
 Wind from E
Wind: E 12 mph , 19 km/h
Temperature: 72°F , 22°C
Dew Point: 52°F , 11°C
Humidity: 50%
Barometer: 30.24 inHg , 1024 hPa
Clouds: Partly cloudy
Visibility: 10 miles , 16 km
Cloud details: Few Clouds 4500 ft
Partly cloudy 25000 ft
2019/08/24 21:52 KMKE 242152Z 10010KT 10SM FEW045 SCT250 22/11 A3024 RMK AO2 SLP240 T02170111
KMSN - Truax Field, Madison, WI
Updated: 08/24/2019 4:53pm
Mostly cloudy
Mostly cloudy
 Wind from ESE
Wind: ESE 15 mph , 24 km/h
Temperature: 73°F , 23°C
Dew Point: 52°F , 11°C
Humidity: 47%
Barometer: 30.21 inHg , 1023 hPa
Clouds: Mostly cloudy
Visibility: 10 miles , 16 km
Cloud details: Partly cloudy 5000 ft
Mostly cloudy 25000 ft
2019/08/24 21:53 KMSN 242153Z 12013KT 10SM SCT050 BKN250 23/11 A3021 RMK AO2 SLP230 T02280106
 
KGRB - Austin Strable Field, Green Bay, WI
Updated: 08/24/2019 4:53pm
Clear
Clear
 Wind from SE
Wind: SE 8 mph , 13 km/h
Temperature: 72°F , 22°C
Dew Point: 55°F , 13°C
Humidity: 57%
Barometer: 30.25 inHg , 1024.4 hPa
Clouds: Clear
Visibility: 10 miles , 16 km
2019/08/24 21:53 KGRB 242153Z 13007KT 10SM CLR 22/13 A3025 RMK AO2 SLP243 T02220128
KSUW - Bong Airport, Superior, WI
Updated: 08/24/2019 5:15pm
Mostly cloudy
Mostly cloudy
 Wind from NE
Wind: NE 5 mph , 7 km/h
Temperature: 70°F , 21°C
Dew Point: 59°F , 15°C
Humidity: 69%
Barometer: 30.18 inHg , 1022 hPa
Clouds: Mostly cloudy
Visibility: 10 miles , 16 km
Cloud details: Mostly cloudy 5000 ft
2019/08/24 22:15 KSUW 242215Z AUTO 05004KT 10SM BKN050 21/15 A3018 RMK AO2 T02100154
 
KLSE - La Crosse Municipal Airport, La Crosse, WI
Updated: 08/24/2019 4:53pm
Mostly cloudy
Mostly cloudy
 Wind from SE
Wind: SE 8 mph , 13 km/h
Temperature: 79°F , 26°C
Dew Point: 54°F , 12°C
Humidity: 42%
Barometer: 30.18 inHg , 1022 hPa
Clouds: Mostly cloudy
Visibility: 10 miles , 16 km
Cloud details: Mostly cloudy 5500 ft
2019/08/24 21:53 KLSE 242153Z 13007KT 10SM BKN055 26/12 A3018 RMK AO2 SLP212 T02560122
KIMT - Ford Field, Iron Mountain, MI
Updated: 08/24/2019 4:54pm
Mostly cloudy
Mostly cloudy
 Wind from E
Wind: E 8 mph , 13 km/h
Temperature: 72°F , 22°C
Dew Point: 50°F , 10°C
Humidity: 47%
Barometer: 30.25 inHg , 1024.4 hPa
Clouds: Mostly cloudy
Visibility: 10 miles , 16 km
Cloud details: Mostly cloudy 4500 ft
2019/08/24 21:54 KIMT 242154Z AUTO 10007KT 10SM BKN045 22/10 A3025 RMK AO2 SLP247 T02220100 $
 
KSAW - K.I. Sawyer Field, Marquette, MI
Updated: 08/24/2019 4:47pm
Few Clouds
Few Clouds
 Wind from NE
Wind: NE 12 mph , 19 km/h
Temperature: 70°F , 21°C
Dew Point: 52°F , 11°C
Humidity: 53%
Barometer: 30.26 inHg , 1024.7 hPa
Clouds: Few Clouds
Visibility: 10 miles , 16 km
Cloud details: Few Clouds 5500 ft
2019/08/24 21:47 KSAW 242147Z 05010KT 10SM FEW055 21/11 A3026
KIWD - Iron County Airport, Ironwood, MI
Updated: 08/24/2019 4:56pm
Clear
Clear
 Wind from SSE
Wind: SSE 7 mph , 11 km/h
Temperature: 72°F , 22°C
Dew Point: 50°F , 10°C
Humidity: 47%
Barometer: 30.23 inHg , 1023.7 hPa
Clouds: Clear
Visibility: 10 miles , 16 km
2019/08/24 21:56 KIWD 242156Z AUTO 16006KT 10SM CLR 22/10 A3023 RMK AO2 SLP235 T02170100